Time;durP1;ratioP1;P1;durP2;ratioP2;P2;SDS_P1;SDS_P2;PMS_P1;PMS_P2;Temp;Humidity;BMP_temperature;BMP_pressure;BME280_temperature;BME280_humidity;BME280_pressure;Samples;Min_cycle;Max_cycle;Signal;HPM_P1;HPM_P2
2021/05/21 00:01:56;;;;;;;5.63;4.60;;;10.90;99.90;;;;;;5053613;28;20070;-72
2021/05/21 00:04:22;;;;;;;6.40;4.97;;;10.80;99.90;;;;;;5053475;28;20032;-73
2021/05/21 00:06:47;;;;;;;5.03;4.63;;;10.80;99.90;;;;;;5053610;28;20024;-73
2021/05/21 00:09:14;;;;;;;4.88;4.47;;;10.70;99.90;;;;;;5053055;28;20025;-73
2021/05/21 00:11:39;;;;;;;5.05;4.45;;;10.70;99.90;;;;;;5053350;28;20123;-74
2021/05/21 00:14:05;;;;;;;5.32;4.80;;;10.50;99.90;;;;;;5035442;28;20124;-74
2021/05/21 00:16:30;;;;;;;6.30;4.85;;;10.60;99.90;;;;;;5035406;28;20021;-74
2021/05/21 00:18:56;;;;;;;6.30;5.55;;;10.60;99.90;;;;;;5035254;28;20063;-74
2021/05/21 00:21:21;;;;;;;5.15;4.60;;;10.50;99.90;;;;;;5068386;28;20396;-74
2021/05/21 00:23:47;;;;;;;5.32;4.82;;;10.40;99.90;;;;;;5035308;28;20029;-74
2021/05/21 00:26:13;;;;;;;5.57;5.07;;;10.40;99.90;;;;;;5053123;28;20044;-74
2021/05/21 00:28:38;;;;;;;5.45;5.00;;;10.40;99.90;;;;;;5034856;28;20029;-73
2021/05/21 00:31:04;;;;;;;5.00;4.60;;;10.50;99.90;;;;;;5034815;28;20036;-73
2021/05/21 00:33:29;;;;;;;5.15;4.65;;;10.50;99.90;;;;;;5052980;28;20138;-75
2021/05/21 00:35:55;;;;;;;6.10;5.07;;;10.50;99.90;;;;;;5053021;28;20023;-73
2021/05/21 00:38:20;;;;;;;5.22;4.72;;;10.30;99.90;;;;;;5034870;28;20419;-74
2021/05/21 00:40:46;;;;;;;5.38;4.57;;;10.30;99.90;;;;;;5034834;28;20033;-73
2021/05/21 00:43:15;;;;;;;5.00;4.60;;;10.50;99.90;;;;;;5052704;28;20480;-71
2021/05/21 00:45:40;;;;;;;5.10;4.47;;;10.50;99.90;;;;;;5052633;28;20468;-72
2021/05/21 00:48:06;;;;;;;5.57;4.28;;;10.40;99.90;;;;;;5034741;28;20021;-72
2021/05/21 00:50:32;;;;;;;7.25;4.30;;;10.40;99.90;;;;;;5052264;28;20025;-73
2021/05/21 00:52:58;;;;;;;5.20;4.55;;;10.40;99.90;;;;;;5034691;28;20393;-73
2021/05/21 00:55:24;;;;;;;5.10;4.60;;;10.40;99.90;;;;;;5052530;28;20036;-73
2021/05/21 00:57:50;;;;;;;6.38;4.40;;;10.40;99.90;;;;;;5052421;28;20029;-72
2021/05/21 01:00:15;;;;;;;4.40;4.00;;;10.30;99.90;;;;;;5034398;28;20034;-72
2021/05/21 01:02:41;;;;;;;5.85;4.10;;;10.30;99.90;;;;;;5052404;28;20029;-72
2021/05/21 01:05:07;;;;;;;4.32;3.92;;;10.20;99.90;;;;;;5053103;28;20476;-74
2021/05/21 01:07:33;;;;;;;3.97;3.67;;;10.20;99.90;;;;;;5052207;28;20036;-74
2021/05/21 01:09:58;;;;;;;6.07;3.90;;;10.20;99.90;;;;;;5052343;28;20028;-74
2021/05/21 01:12:24;;;;;;;7.75;4.25;;;10.30;99.90;;;;;;5052259;28;20025;-74
2021/05/21 01:14:52;;;;;;;4.47;4.03;;;10.40;99.90;;;;;;5052207;28;20582;-73
2021/05/21 01:17:19;;;;;;;4.70;3.90;;;10.40;99.90;;;;;;5052119;28;20107;-73
2021/05/21 01:19:45;;;;;;;4.32;3.88;;;10.40;99.90;;;;;;5033985;28;20017;-73
2021/05/21 01:22:11;;;;;;;5.15;4.00;;;10.40;99.90;;;;;;5034153;28;20702;-72
2021/05/21 01:24:38;;;;;;;5.60;4.32;;;10.40;99.90;;;;;;5051940;28;20040;-72
2021/05/21 01:27:04;;;;;;;4.53;3.97;;;10.50;99.90;;;;;;5045804;28;20036;-72
2021/05/21 01:29:30;;;;;;;4.38;3.97;;;10.50;99.90;;;;;;5051620;28;20104;-72
2021/05/21 01:31:56;;;;;;;4.80;4.40;;;10.30;99.90;;;;;;5033943;28;20125;-72
2021/05/21 01:34:22;;;;;;;4.50;4.10;;;10.40;99.90;;;;;;5051844;28;20025;-72
2021/05/21 01:36:48;;;;;;;4.63;3.90;;;10.40;99.90;;;;;;5051771;28;20029;-72
2021/05/21 01:39:13;;;;;;;4.25;3.95;;;10.40;99.90;;;;;;5051032;28;20040;-72
2021/05/21 01:41:41;;;;;;;4.53;4.00;;;10.30;99.90;;;;;;5033759;28;20028;-72
2021/05/21 01:44:09;;;;;;;4.47;4.07;;;10.40;99.90;;;;;;5051722;28;20025;-73
2021/05/21 01:46:36;;;;;;;4.63;3.85;;;10.40;99.90;;;;;;5033777;28;20083;-73
2021/05/21 01:49:01;;;;;;;5.53;3.55;;;10.40;99.90;;;;;;5051502;28;20112;-73
2021/05/21 01:51:28;;;;;;;4.00;3.65;;;10.40;99.90;;;;;;5051468;28;20116;-73
2021/05/21 01:54:10;;;;;;;4.43;3.78;;;10.30;99.90;;;;;;5051673;28;20117;-73
2021/05/21 01:56:36;;;;;;;5.00;3.95;;;10.30;99.90;;;;;;5051620;28;20021;-74
2021/05/21 01:59:01;;;;;;;4.20;3.80;;;10.40;99.90;;;;;;5051303;28;20510;-76
2021/05/21 02:01:27;;;;;;;3.67;3.38;;;10.30;99.90;;;;;;5051579;28;20489;-73
2021/05/21 02:03:52;;;;;;;4.97;3.58;;;10.20;99.90;;;;;;5051360;28;20103;-74
2021/05/21 02:06:18;;;;;;;4.47;3.60;;;10.40;99.90;;;;;;5051445;28;20048;-73
2021/05/21 02:08:43;;;;;;;3.80;3.40;;;10.60;99.90;;;;;;5033423;28;20028;-74
2021/05/21 02:11:09;;;;;;;3.83;3.53;;;10.30;99.90;;;;;;5033459;28;20025;-74
2021/05/21 02:13:34;;;;;;;3.88;3.53;;;10.30;99.90;;;;;;5051382;28;20032;-73
2021/05/21 02:16:00;;;;;;;4.60;3.40;;;10.40;99.90;;;;;;5051452;28;20479;-75
2021/05/21 02:18:25;;;;;;;3.55;3.25;;;10.40;99.90;;;;;;5033487;28;20032;-77
2021/05/21 02:20:51;;;;;;;3.95;3.55;;;10.40;99.90;;;;;;5051353;28;20496;-73
2021/05/21 02:23:16;;;;;;;3.72;3.35;;;10.50;99.90;;;;;;5051286;28;20029;-76
2021/05/21 02:25:42;;;;;;;5.13;3.50;;;10.50;99.90;;;;;;5051331;28;20052;-73
2021/05/21 02:28:07;;;;;;;3.58;3.28;;;10.50;99.90;;;;;;5051243;28;20029;-75
2021/05/21 02:30:33;;;;;;;3.58;3.28;;;10.50;99.90;;;;;;5033098;28;20025;-75
2021/05/21 02:32:58;;;;;;;4.75;3.75;;;10.40;99.90;;;;;;5033318;28;20229;-74
2021/05/21 02:35:24;;;;;;;3.90;3.50;;;10.30;99.90;;;;;;5051217;28;20094;-76
2021/05/21 02:37:50;;;;;;;4.05;3.33;;;10.40;99.90;;;;;;5051169;28;20073;-74
2021/05/21 02:40:15;;;;;;;3.30;3.00;;;10.40;99.90;;;;;;5051116;28;20381;-74
2021/05/21 02:42:41;;;;;;;3.47;3.17;;;10.40;99.90;;;;;;5051104;28;20025;-74
2021/05/21 02:45:08;;;;;;;3.30;3.00;;;10.50;99.90;;;;;;5051304;28;20079;-74
2021/05/21 02:47:33;;;;;;;3.20;3.00;;;10.40;99.90;;;;;;5051069;28;20029;-75
2021/05/21 02:49:59;;;;;;;4.80;3.33;;;10.40;99.90;;;;;;5050878;28;20029;-74
2021/05/21 02:52:26;;;;;;;3.25;3.05;;;10.40;99.90;;;;;;5053293;28;20033;-74
2021/05/21 02:54:52;;;;;;;3.50;3.20;;;10.30;99.90;;;;;;5054915;28;20607;-74
2021/05/21 02:57:21;;;;;;;3.13;2.92;;;10.30;99.90;;;;;;5054978;28;20103;-75
2021/05/21 02:59:46;;;;;;;3.67;3.20;;;10.20;99.90;;;;;;5036628;28;20108;-75
2021/05/21 03:02:12;;;;;;;3.58;3.28;;;10.10;99.90;;;;;;5036799;28;20116;-77
2021/05/21 03:04:37;;;;;;;3.33;3.00;;;10.10;99.90;;;;;;5037123;28;20020;-76
2021/05/21 03:07:03;;;;;;;3.30;2.97;;;10.20;99.90;;;;;;5036717;28;20021;-76
2021/05/21 03:09:28;;;;;;;3.35;3.05;;;10.20;99.90;;;;;;5054373;28;20029;-75
2021/05/21 03:11:54;;;;;;;4.28;3.13;;;10.20;99.90;;;;;;5054419;28;20040;-76
2021/05/21 03:14:19;;;;;;;7.90;3.40;;;10.20;99.90;;;;;;5054636;28;20052;-74
2021/05/21 03:16:45;;;;;;;2.95;2.70;;;10.10;99.90;;;;;;5036567;28;20025;-75
2021/05/21 03:19:10;;;;;;;5.68;2.88;;;10.10;99.90;;;;;;5036254;28;20078;-75
2021/05/21 03:21:36;;;;;;;3.13;2.80;;;10.20;99.90;;;;;;5069691;28;20392;-73
2021/05/21 03:24:02;;;;;;;3.28;2.97;;;10.20;99.90;;;;;;5054244;28;20043;-73
2021/05/21 03:26:27;;;;;;;3.47;2.80;;;10.10;99.90;;;;;;5054132;28;20052;-72
2021/05/21 03:28:53;;;;;;;3.22;2.92;;;10.20;99.90;;;;;;5054169;28;20029;-73
2021/05/21 03:31:18;;;;;;;3.28;2.97;;;10.20;99.90;;;;;;5053815;28;20056;-72
2021/05/21 03:33:44;;;;;;;3.20;2.90;;;10.20;99.90;;;;;;5054028;28;20120;-73
2021/05/21 03:36:10;;;;;;;3.58;3.13;;;10.20;99.90;;;;;;5054113;28;20035;-73
2021/05/21 03:38:36;;;;;;;3.60;2.85;;;10.20;99.90;;;;;;5053911;28;20028;-72
2021/05/21 03:41:02;;;;;;;3.20;3.00;;;10.30;99.90;;;;;;5053730;28;20025;-74
2021/05/21 03:43:27;;;;;;;4.30;2.70;;;10.20;99.90;;;;;;5035929;28;20389;-72
2021/05/21 03:45:53;;;;;;;3.47;2.92;;;10.30;99.90;;;;;;5054013;28;20029;-72
2021/05/21 03:48:18;;;;;;;3.03;2.80;;;10.30;99.90;;;;;;5053820;28;20029;-72
2021/05/21 03:50:44;;;;;;;2.72;2.53;;;10.30;99.90;;;;;;5053270;28;20029;-72
2021/05/21 03:53:10;;;;;;;2.72;2.53;;;10.30;99.90;;;;;;5053841;28;20025;-73
2021/05/21 03:55:35;;;;;;;2.65;2.35;;;10.30;99.90;;;;;;5035951;28;20028;-72
2021/05/21 03:58:01;;;;;;;3.40;3.08;;;10.20;99.90;;;;;;5053499;28;20025;-72
2021/05/21 04:00:27;;;;;;;3.10;2.80;;;10.30;99.90;;;;;;5053461;28;20485;-72
2021/05/21 04:02:53;;;;;;;3.10;2.80;;;10.30;99.90;;;;;;5053144;28;20032;-72
2021/05/21 04:05:19;;;;;;;2.80;2.60;;;10.30;99.90;;;;;;5053580;28;20524;-73
2021/05/21 04:07:47;;;;;;;3.65;2.65;;;10.30;99.90;;;;;;5053401;28;20103;-72
2021/05/21 04:10:12;;;;;;;3.60;2.70;;;10.30;99.90;;;;;;5035359;28;20052;-72
2021/05/21 04:12:38;;;;;;;3.17;2.60;;;10.30;99.90;;;;;;5053341;28;20542;-73
2021/05/21 04:15:05;;;;;;;3.10;2.80;;;10.40;99.90;;;;;;5053402;28;20023;-72
2021/05/21 04:17:30;;;;;;;5.63;3.40;;;10.30;99.90;;;;;;5053494;28;20100;-72
2021/05/21 04:19:56;;;;;;;3.30;3.00;;;10.40;99.90;;;;;;5053063;28;20478;-74
2021/05/21 04:22:21;;;;;;;3.00;2.70;;;10.50;99.90;;;;;;5068912;28;20071;-72
2021/05/21 04:24:47;;;;;;;2.88;2.67;;;10.50;99.90;;;;;;5053157;28;20373;-72
2021/05/21 04:27:13;;;;;;;4.05;2.80;;;10.50;99.90;;;;;;5035205;28;20029;-72
2021/05/21 04:29:38;;;;;;;5.43;3.30;;;10.50;99.90;;;;;;5052847;28;20419;-72
2021/05/21 04:32:05;;;;;;;3.30;3.10;;;10.50;99.90;;;;;;5052983;28;20024;-72
2021/05/21 04:34:31;;;;;;;5.10;3.30;;;10.50;99.90;;;;;;5035290;28;20416;-73
2021/05/21 04:36:57;;;;;;;4.70;3.25;;;10.50;99.90;;;;;;5035168;28;20017;-73
2021/05/21 04:39:23;;;;;;;3.42;3.03;;;10.50;99.90;;;;;;5052652;28;20031;-73
2021/05/21 04:41:49;;;;;;;2.70;2.50;;;10.50;99.90;;;;;;5052817;28;20021;-73
2021/05/21 04:44:14;;;;;;;4.55;2.70;;;10.50;99.90;;;;;;5052838;28;20079;-73
2021/05/21 04:46:40;;;;;;;2.90;2.70;;;10.60;99.90;;;;;;5034775;28;20041;-73
2021/05/21 04:49:06;;;;;;;3.40;2.88;;;10.70;99.90;;;;;;5052501;28;20028;-73
2021/05/21 04:51:32;;;;;;;2.88;2.58;;;10.70;99.90;;;;;;5052367;28;20033;-72
2021/05/21 04:54:02;;;;;;;3.20;2.90;;;10.70;99.90;;;;;;5052694;28;20036;-74
2021/05/21 04:56:28;;;;;;;3.40;2.70;;;10.70;99.90;;;;;;5039354;28;20108;-74
2021/05/21 04:58:53;;;;;;;3.97;3.10;;;10.70;99.90;;;;;;5052358;28;20096;-74
2021/05/21 05:01:19;;;;;;;4.32;2.97;;;10.70;99.90;;;;;;5034423;28;20476;-73
2021/05/21 05:03:44;;;;;;;3.67;3.30;;;10.70;99.90;;;;;;5034440;28;20058;-73
2021/05/21 05:06:11;;;;;;;3.95;3.00;;;10.70;99.90;;;;;;5054307;28;20131;-73
2021/05/21 05:08:37;;;;;;;3.05;2.80;;;10.80;99.90;;;;;;5052137;28;20021;-73
2021/05/21 05:11:03;;;;;;;3.83;2.60;;;10.80;99.90;;;;;;5051924;28;20067;-73
2021/05/21 05:13:28;;;;;;;3.13;2.92;;;10.80;99.90;;;;;;5051819;28;20025;-75
2021/05/21 05:15:54;;;;;;;3.75;2.58;;;10.90;99.90;;;;;;5051814;28;20021;-74
2021/05/21 05:18:19;;;;;;;5.18;3.38;;;10.70;99.90;;;;;;5052027;28;20532;-74
2021/05/21 05:20:46;;;;;;;3.08;2.60;;;10.80;99.90;;;;;;5027888;28;20075;-74
2021/05/21 05:23:12;;;;;;;3.20;2.95;;;11.00;99.90;;;;;;5045176;28;20370;-74
2021/05/21 05:25:45;;;;;;;3.80;3.40;;;11.10;99.90;;;;;;5052084;28;20021;-74
2021/05/21 05:28:12;;;;;;;3.10;2.78;;;11.10;99.90;;;;;;5046233;28;20083;-74
2021/05/21 05:30:39;;;;;;;3.28;2.50;;;11.10;99.90;;;;;;5051701;28;20539;-75
2021/05/21 05:33:04;;;;;;;2.97;2.70;;;11.20;99.90;;;;;;5034146;28;20021;-75
2021/05/21 05:35:30;;;;;;;4.78;2.72;;;11.20;99.90;;;;;;5033940;28;20557;-76
2021/05/21 05:37:55;;;;;;;4.70;3.10;;;11.40;99.90;;;;;;5051580;28;20110;-75
2021/05/21 05:40:21;;;;;;;3.50;2.80;;;11.30;99.90;;;;;;5051696;28;20025;-75
2021/05/21 05:42:46;;;;;;;4.32;3.00;;;11.40;99.90;;;;;;5051704;28;20385;-75
2021/05/21 05:45:13;;;;;;;3.55;2.60;;;11.50;99.90;;;;;;5051760;28;20033;-73
2021/05/21 05:47:38;;;;;;;3.42;2.90;;;11.70;99.90;;;;;;5066954;28;20024;-74
2021/05/21 05:50:05;;;;;;;3.17;2.70;;;11.70;99.90;;;;;;5051543;28;20436;-73
2021/05/21 05:52:30;;;;;;;2.95;2.65;;;11.70;99.90;;;;;;5033550;28;20447;-74
2021/05/21 05:54:56;;;;;;;5.28;2.45;;;11.70;99.90;;;;;;5051582;28;20024;-73
2021/05/21 05:57:21;;;;;;;2.50;2.30;;;11.80;99.90;;;;;;5051477;28;20018;-73
2021/05/21 05:59:47;;;;;;;2.90;2.58;;;11.90;99.90;;;;;;5033438;28;20021;-75
2021/05/21 06:02:12;;;;;;;3.15;2.50;;;11.90;99.90;;;;;;5050532;28;20025;-74
2021/05/21 06:04:39;;;;;;;3.05;2.72;;;11.80;99.90;;;;;;5051483;28;20109;-75
2021/05/21 06:07:05;;;;;;;4.25;2.90;;;11.90;99.90;;;;;;5051421;28;20036;-75
2021/05/21 06:09:30;;;;;;;3.67;2.38;;;11.90;99.90;;;;;;5051181;28;20033;-75
2021/05/21 06:11:57;;;;;;;4.60;3.20;;;12.00;99.90;;;;;;5033351;28;20025;-74
2021/05/21 06:14:23;;;;;;;4.07;2.30;;;12.10;99.90;;;;;;5033617;28;20384;-74
2021/05/21 06:16:48;;;;;;;3.75;2.30;;;12.10;99.90;;;;;;5033301;28;20022;-74
2021/05/21 06:19:14;;;;;;;2.47;2.13;;;12.10;99.90;;;;;;5051283;28;20033;-74
2021/05/21 06:21:39;;;;;;;2.60;2.20;;;12.20;99.90;;;;;;5051253;28;20237;-75
2021/05/21 06:24:06;;;;;;;4.05;1.85;;;12.20;99.90;;;;;;5033518;28;20028;-74
2021/05/21 06:26:39;;;;;;;2.67;2.00;;;12.10;99.90;;;;;;5054048;28;20488;-73
2021/05/21 06:29:04;;;;;;;4.80;2.53;;;12.20;99.90;;;;;;5055127;28;20484;-73
2021/05/21 06:31:30;;;;;;;2.47;2.05;;;12.20;99.90;;;;;;5055123;28;20081;-74
2021/05/21 06:33:55;;;;;;;2.45;2.15;;;12.20;99.90;;;;;;5055201;28;20025;-74
2021/05/21 06:36:21;;;;;;;3.25;2.33;;;12.20;99.90;;;;;;5055204;28;20025;-75
2021/05/21 06:38:46;;;;;;;2.38;2.17;;;12.30;99.90;;;;;;5055126;28;20083;-75
2021/05/21 06:41:12;;;;;;;3.75;2.17;;;12.30;99.90;;;;;;5055126;28;20024;-76
2021/05/21 06:43:37;;;;;;;2.50;2.30;;;12.20;99.90;;;;;;5055416;28;20393;-77
2021/05/21 06:46:04;;;;;;;2.63;2.17;;;12.40;99.90;;;;;;5055558;28;20039;-77
2021/05/21 06:48:31;;;;;;;3.35;2.30;;;12.40;99.90;;;;;;5055985;28;20025;-77
2021/05/21 06:51:05;;;;;;;2.42;2.08;;;12.40;99.90;;;;;;5036695;28;20408;-73
2021/05/21 06:53:31;;;;;;;3.17;2.20;;;12.40;99.90;;;;;;5054300;28;20086;-74
2021/05/21 06:55:56;;;;;;;2.67;2.00;;;12.50;99.90;;;;;;5052891;28;20548;-74
2021/05/21 06:58:24;;;;;;;2.90;2.00;;;12.40;99.90;;;;;;5034906;28;20442;-73
2021/05/21 07:00:51;;;;;;;2.30;1.90;;;12.50;99.90;;;;;;5035097;28;20021;-72
2021/05/21 07:03:17;;;;;;;2.88;1.77;;;12.60;99.90;;;;;;5053427;28;20057;-73
2021/05/21 07:05:43;;;;;;;2.55;1.80;;;12.50;99.90;;;;;;5053706;28;20028;-74
2021/05/21 07:08:12;;;;;;;5.40;2.33;;;12.60;99.90;;;;;;5053193;28;20021;-74
2021/05/21 07:10:38;;;;;;;2.38;1.73;;;12.60;99.90;;;;;;5055531;28;20399;-74
2021/05/21 07:13:09;;;;;;;3.08;2.00;;;12.60;99.90;;;;;;5055486;28;20029;-74
2021/05/21 07:15:35;;;;;;;3.17;1.90;;;12.60;99.90;;;;;;5057283;28;20035;-74
2021/05/21 07:18:00;;;;;;;5.60;1.92;;;12.70;99.90;;;;;;5041920;28;20020;-74
2021/05/21 07:20:26;;;;;;;2.38;1.50;;;12.80;99.90;;;;;;5057846;28;20033;-74
2021/05/21 07:22:51;;;;;;;1.95;1.75;;;12.90;99.90;;;;;;5053857;28;20025;-74
2021/05/21 07:25:17;;;;;;;2.60;1.67;;;13.00;99.90;;;;;;5056241;28;20057;-74
2021/05/21 07:27:42;;;;;;;3.20;1.73;;;13.20;99.90;;;;;;5053913;28;20427;-74
2021/05/21 07:30:09;;;;;;;4.43;2.05;;;13.00;99.90;;;;;;5053801;28;20074;-74
2021/05/21 07:32:34;;;;;;;1.70;1.60;;;13.10;99.90;;;;;;5035997;28;20162;-74
2021/05/21 07:35:00;;;;;;;2.47;1.58;;;13.20;99.90;;;;;;5053977;28;20528;-74
2021/05/21 07:37:26;;;;;;;4.18;1.60;;;13.30;99.90;;;;;;5053289;28;20021;-74
2021/05/21 07:39:51;;;;;;;1.90;1.80;;;13.40;99.90;;;;;;5053703;28;20045;-74
2021/05/21 07:42:17;;;;;;;3.53;1.92;;;13.50;99.90;;;;;;5036109;28;20029;-74
2021/05/21 07:44:42;;;;;;;2.40;1.48;;;13.60;99.90;;;;;;5053922;28;20035;-74
2021/05/21 07:47:08;;;;;;;3.05;1.77;;;13.70;99.90;;;;;;5053848;28;20036;-74
2021/05/21 07:49:33;;;;;;;2.28;1.88;;;13.90;99.90;;;;;;5053481;28;20116;-74
2021/05/21 07:51:59;;;;;;;2.22;1.80;;;14.00;99.90;;;;;;5053606;28;20477;-74
2021/05/21 07:54:25;;;;;;;3.30;1.88;;;14.10;99.90;;;;;;5053771;28;20017;-75
2021/05/21 07:56:50;;;;;;;2.03;1.77;;;14.10;99.90;;;;;;5035814;28;20039;-74
2021/05/21 07:59:16;;;;;;;3.33;1.88;;;14.20;99.90;;;;;;5035420;28;20013;-74
2021/05/21 08:01:42;;;;;;;2.25;1.60;;;14.20;99.90;;;;;;5035785;28;20029;-75
2021/05/21 08:04:08;;;;;;;2.28;1.60;;;14.30;99.90;;;;;;5035495;28;20124;-77
2021/05/21 08:06:34;;;;;;;6.13;1.80;;;14.40;99.90;;;;;;5053391;28;20021;-75
2021/05/21 08:09:04;;;;;;;3.30;1.60;;;14.50;99.90;;;;;;5053068;28;20017;-74
2021/05/21 08:11:30;;;;;;;2.83;1.33;;;14.60;99.90;;;;;;5035652;28;20495;-75
2021/05/21 08:13:55;;;;;;;3.53;1.77;;;14.70;99.90;;;;;;5053261;28;20109;-75
2021/05/21 08:16:21;;;;;;;2.83;1.60;;;14.70;99.90;;;;;;5053107;28;20108;-75
2021/05/21 08:18:46;;;;;;;2.53;1.52;;;14.60;99.90;;;;;;5053409;28;20036;-75
2021/05/21 08:21:12;;;;;;;3.53;1.77;;;14.70;99.90;;;;;;5068441;28;20059;-75
2021/05/21 08:23:37;;;;;;;2.20;1.75;;;14.70;99.90;;;;;;5053227;28;20032;-75
2021/05/21 08:26:06;;;;;;;1.95;1.70;;;14.90;99.90;;;;;;5035176;28;20086;-74
2021/05/21 08:28:32;;;;;;;4.45;1.83;;;14.80;99.90;;;;;;5051749;28;20086;-75
2021/05/21 08:30:58;;;;;;;1.85;1.55;;;14.90;99.90;;;;;;5033263;28;20099;-75
2021/05/21 08:33:23;;;;;;;3.72;1.70;;;15.00;99.90;;;;;;5052187;28;20472;-75
2021/05/21 08:35:49;;;;;;;1.67;1.50;;;15.10;99.90;;;;;;5052535;28;20072;-75
2021/05/21 08:38:16;;;;;;;2.88;1.50;;;15.20;99.90;;;;;;5052032;28;20667;-75
2021/05/21 08:40:41;;;;;;;2.30;1.48;;;15.20;99.90;;;;;;5033795;28;20357;-75
2021/05/21 08:43:09;;;;;;;2.78;1.33;;;15.20;99.90;;;;;;5034586;28;20040;-75
2021/05/21 08:45:34;;;;;;;2.53;1.60;;;15.20;99.90;;;;;;5052887;28;20032;-75
2021/05/21 08:48:03;;;;;;;2.58;1.90;;;15.20;99.90;;;;;;5052538;28;20436;-74
2021/05/21 08:50:30;;;;;;;3.50;1.73;;;15.30;99.90;;;;;;5034555;28;20070;-75
2021/05/21 08:52:56;;;;;;;2.50;1.38;;;15.30;99.90;;;;;;5052552;28;20110;-75
2021/05/21 08:55:22;;;;;;;3.05;1.58;;;15.30;99.90;;;;;;5052640;28;20056;-75
2021/05/21 08:57:47;;;;;;;1.52;1.42;;;15.30;99.90;;;;;;5034644;28;20017;-75
2021/05/21 09:00:14;;;;;;;2.35;1.30;;;15.30;99.90;;;;;;5052343;28;20039;-75
2021/05/21 09:02:40;;;;;;;3.33;1.50;;;15.30;99.90;;;;;;5052469;28;20031;-75
2021/05/21 09:05:10;;;;;;;1.92;1.30;;;15.20;99.90;;;;;;5034579;28;20489;-76
2021/05/21 09:07:38;;;;;;;1.95;1.25;;;15.30;99.90;;;;;;5054105;28;20564;-75
2021/05/21 09:10:15;;;;;;;3.95;1.90;;;15.40;99.90;;;;;;5052093;28;20049;-75
2021/05/21 09:12:52;;;;;;;5.10;1.73;;;15.20;99.90;;;;;;5052116;28;20542;-75
2021/05/21 09:15:25;;;;;;;2.90;1.63;;;15.40;99.90;;;;;;5052226;28;20127;-75
2021/05/21 09:18:03;;;;;;;3.85;1.45;;;15.20;99.90;;;;;;5052028;28;20079;-75
2021/05/21 09:20:33;;;;;;;1.55;1.40;;;15.20;99.90;;;;;;5051887;28;20036;-74
2021/05/21 09:23:07;;;;;;;3.70;1.60;;;15.50;99.90;;;;;;5052158;28;20025;-74
2021/05/21 09:25:50;;;;;;;4.22;1.98;;;15.50;99.90;;;;;;5052024;28;20028;-74
2021/05/21 09:28:39;;;;;;;2.10;1.40;;;15.60;99.90;;;;;;5046148;28;20388;-75
2021/05/21 09:31:10;;;;;;;2.50;1.90;;;15.70;99.90;;;;;;5051528;28;20021;-74
2021/05/21 09:33:37;;;;;;;2.83;1.70;;;15.70;99.90;;;;;;5051616;28;20017;-75
2021/05/21 09:36:04;;;;;;;3.13;1.40;;;15.70;99.90;;;;;;5051954;28;20056;-75
2021/05/21 09:38:50;;;;;;;2.30;1.50;;;15.60;99.90;;;;;;5033823;28;20017;-74
2021/05/21 09:41:16;;;;;;;8.07;1.65;;;15.60;99.90;;;;;;5051758;28;20488;-74
2021/05/21 09:43:48;;;;;;;4.32;2.05;;;15.50;99.90;;;;;;5051790;28;20033;-75
2021/05/21 09:46:13;;;;;;;4.45;2.70;;;15.50;99.90;;;;;;5051679;28;20029;-74
2021/05/21 09:48:39;;;;;;;3.70;1.35;;;15.70;99.90;;;;;;5051557;28;20060;-75
2021/05/21 09:51:05;;;;;;;3.78;2.42;;;15.80;99.90;;;;;;5051330;28;20377;-75
2021/05/21 09:53:33;;;;;;;3.72;1.85;;;15.60;99.90;;;;;;5051780;28;20036;-74
2021/05/21 09:56:04;;;;;;;5.40;1.75;;;15.60;99.90;;;;;;5051696;28;20017;-74
2021/05/21 09:58:40;;;;;;;2.03;1.52;;;15.80;99.90;;;;;;5051622;28;20021;-74
2021/05/21 10:01:16;;;;;;;;;;;16.00;99.90;;;;;;5051311;28;20103;-75
2021/05/21 10:03:44;;;;;;;2.05;1.38;;;16.00;99.90;;;;;;5051510;28;19905;-74
2021/05/21 10:06:10;;;;;;;3.75;1.60;;;16.10;99.90;;;;;;5033652;28;20477;-74
2021/05/21 10:08:38;;;;;;;4.10;1.85;;;16.10;99.90;;;;;;5033515;28;20492;-74
2021/05/21 10:11:05;;;;;;;4.80;1.50;;;16.00;99.90;;;;;;5051148;28;20094;-74
2021/05/21 10:13:31;;;;;;;3.03;1.90;;;16.10;99.90;;;;;;5051477;28;20017;-75
2021/05/21 10:15:57;;;;;;;4.13;1.55;;;16.20;99.90;;;;;;5051307;28;20017;-74
2021/05/21 10:18:23;;;;;;;2.58;1.48;;;16.20;99.90;;;;;;5051154;28;20436;-74
2021/05/21 10:20:49;;;;;;;5.07;3.20;;;16.10;99.90;;;;;;5033266;28;20149;-74
2021/05/21 10:23:21;;;;;;;2.80;1.30;;;15.90;99.90;;;;;;5051367;28;20053;-74
2021/05/21 10:25:50;;;;;;;3.13;1.45;;;15.90;99.90;;;;;;5051383;28;20400;-74
2021/05/21 10:28:17;;;;;;;2.75;1.52;;;15.70;99.90;;;;;;5051221;28;20028;-74
2021/05/21 10:30:43;;;;;;;1.70;1.30;;;15.70;99.90;;;;;;5051005;28;20058;-74
2021/05/21 10:33:20;;;;;;;2.58;2.00;;;15.60;99.90;;;;;;5051394;28;20021;-74
2021/05/21 10:35:47;;;;;;;1.67;1.15;;;15.70;99.90;;;;;;5051541;28;20021;-75
2021/05/21 10:38:21;;;;;;;2.45;1.23;;;15.60;99.90;;;;;;5051053;28;20017;-74
2021/05/21 10:41:17;;;;;;;2.58;1.70;;;15.60;99.90;;;;;;5066488;28;20108;-75
2021/05/21 10:43:47;;;;;;;1.83;1.30;;;15.60;99.90;;;;;;5051178;28;20021;-74
2021/05/21 10:46:23;;;;;;;1.92;1.20;;;15.70;99.90;;;;;;5051023;28;20025;-74
2021/05/21 10:49:02;;;;;;;2.45;1.60;;;16.00;99.90;;;;;;5033218;28;20052;-75
2021/05/21 10:51:47;;;;;;;2.53;1.38;;;16.10;99.90;;;;;;5032847;28;20076;-74
2021/05/21 10:54:40;;;;;;;6.20;2.90;;;16.00;99.90;;;;;;5051011;28;20074;-75
2021/05/21 10:57:16;;;;;;;3.15;1.40;;;16.00;99.90;;;;;;5051182;28;20021;-74
2021/05/21 11:00:02;;;;;;;4.07;1.70;;;16.10;99.90;;;;;;5032975;28;20025;-75
2021/05/21 11:02:52;;;;;;;2.55;1.40;;;16.20;99.90;;;;;;5050594;28;20095;-75
2021/05/21 11:05:24;;;;;;;3.20;1.35;;;16.20;99.90;;;;;;5051112;28;20029;-75
2021/05/21 11:08:01;;;;;;;1.58;1.13;;;16.10;99.90;;;;;;5032942;28;20025;-74
2021/05/21 11:10:34;;;;;;;2.70;1.30;;;15.90;99.90;;;;;;5050655;28;20025;-74
2021/05/21 11:13:02;;;;;;;2.45;1.30;;;15.80;99.90;;;;;;5052581;28;20025;-74
2021/05/21 11:15:50;;;;;;;1.63;1.27;;;15.80;99.90;;;;;;5036725;28;20021;-74
2021/05/21 11:18:16;;;;;;;6.75;1.38;;;15.80;99.90;;;;;;5036541;28;20017;-75
2021/05/21 11:21:12;;;;;;;3.17;1.30;;;15.70;99.90;;;;;;5036279;28;20021;-75
2021/05/21 11:23:46;;;;;;;1.55;1.00;;;15.60;99.90;;;;;;5054302;28;20021;-74
2021/05/21 11:26:13;;;;;;;3.13;1.33;;;15.40;99.90;;;;;;5054321;28;20506;-74
2021/05/21 11:28:50;;;;;;;1.30;1.20;;;15.30;99.90;;;;;;5054218;28;20107;-75
2021/05/21 11:31:18;;;;;;;2.50;1.30;;;15.30;99.90;;;;;;5054033;28;20052;-75
2021/05/21 11:33:45;;;;;;;3.78;1.20;;;15.20;99.90;;;;;;5041462;28;20049;-79
2021/05/21 11:36:11;;;;;;;2.10;1.33;;;15.30;99.90;;;;;;5040704;28;20133;-79
2021/05/21 11:38:37;;;;;;;4.90;1.30;;;15.40;99.90;;;;;;5055399;28;20087;-76
2021/05/21 11:41:04;;;;;;;2.85;1.35;;;15.50;99.90;;;;;;5036842;28;20025;-74
2021/05/21 11:43:29;;;;;;;1.27;1.17;;;15.60;99.90;;;;;;5022952;28;20064;-75
2021/05/21 11:45:58;;;;;;;2.88;1.13;;;15.50;99.90;;;;;;5036329;28;20052;-74
2021/05/21 11:48:40;;;;;;;2.53;1.30;;;15.70;99.90;;;;;;5053850;28;20051;-74
2021/05/21 11:51:15;;;;;;;5.63;1.30;;;15.90;99.90;;;;;;5035975;28;20038;-73
2021/05/21 11:53:55;;;;;;;4.37;1.30;;;15.80;99.90;;;;;;5054040;28;20404;-75
2021/05/21 11:56:35;;;;;;;2.35;1.40;;;15.90;99.90;;;;;;5053832;28;20029;-74
2021/05/21 11:59:06;;;;;;;2.63;1.10;;;15.90;99.90;;;;;;5053502;28;20032;-75
2021/05/21 12:01:34;;;;;;;3.70;1.35;;;16.20;99.90;;;;;;5053706;28;20029;-74
2021/05/21 12:04:07;;;;;;;4.63;1.60;;;16.10;99.90;;;;;;5035882;28;20025;-74
2021/05/21 12:06:34;;;;;;;4.57;1.55;;;16.10;99.90;;;;;;5053711;28;20032;-75
2021/05/21 12:09:00;;;;;;;6.60;1.40;;;16.00;99.90;;;;;;5035387;28;20039;-74
2021/05/21 12:11:26;;;;;;;3.25;1.73;;;16.10;99.90;;;;;;5053429;28;20032;-74
2021/05/21 12:13:59;;;;;;;4.00;1.52;;;16.20;99.90;;;;;;5053417;28;20053;-75
2021/05/21 12:16:24;;;;;;;2.22;1.40;;;16.10;99.90;;;;;;5053402;28;20032;-75
2021/05/21 12:18:50;;;;;;;4.93;1.38;;;15.90;99.90;;;;;;5053299;28;20389;-75
2021/05/21 12:21:39;;;;;;;3.08;1.30;;;15.90;99.90;;;;;;5053366;28;20032;-76
2021/05/21 12:24:06;;;;;;;2.15;1.17;;;16.30;99.90;;;;;;5040378;28;20554;-75
2021/05/21 12:26:34;;;;;;;2.33;1.40;;;16.30;99.90;;;;;;5053184;28;20025;-75
2021/05/21 12:29:02;;;;;;;4.97;1.15;;;16.20;99.90;;;;;;5035149;28;20032;-75
2021/05/21 12:31:31;;;;;;;2.90;1.42;;;16.30;99.90;;;;;;5035099;28;20025;-75
2021/05/21 12:33:58;;;;;;;4.13;1.40;;;16.40;99.90;;;;;;5035195;28;20056;-75
2021/05/21 12:36:29;;;;;;;2.80;1.23;;;16.10;99.90;;;;;;5052842;28;20068;-74
2021/05/21 12:39:05;;;;;;;2.83;1.40;;;16.10;99.90;;;;;;5052882;28;20388;-73
2021/05/21 12:41:34;;;;;;;3.63;1.70;;;16.20;99.90;;;;;;5052826;28;20033;-74
2021/05/21 12:44:15;;;;;;;2.28;1.40;;;16.20;99.90;;;;;;5052852;28;20505;-74
2021/05/21 12:46:49;;;;;;;2.90;1.60;;;16.30;99.90;;;;;;5052801;28;20119;-74
2021/05/21 12:49:21;;;;;;;3.13;1.40;;;16.40;99.90;;;;;;5052505;28;20028;-75
2021/05/21 12:51:51;;;;;;;3.25;1.60;;;16.40;99.90;;;;;;5040014;28;20048;-74